Huvudsida
METAR-TAF:

METAR-TAF

Flygplatser :

Malmens flygplats

Linköping, Sverige

latitud: 58-24N, longitud: 015-31E, höjd: 93 m

Aktuellt väderrapport

Denna rapport gjordes för 39 minuter sedan, klockan 12:50 UTC
Vind 10 kt från syd/sydväst
Temperatur 21°C
Fuktighet 49%
Tryck 1013 hPa
Sikt 10 km eller mer
Inga moln under 1 500 m eller inga cumulonimbus

METAR: ESCF 151250Z 20010KT CAVOK 21/10 Q1013

Tid: 15:29 (13:29 UTC)

Väderprognos

Denna rapport gjordes för 1 timme och 24 minuter sedan, klockan 12:05 UTC
Prognos gäller från 15 kl. 12 UTC till 15 kl. 15 UTC
Vind 6 kt från syd/sydväst
Sikt 10 km eller mer
Inga moln under 1 500 m eller inga cumulonimbus
Temporärt
från 15 kl. 12 UTC till 15 kl. 15 UTC
Vind 15 kt från syd/sydväst i byarna ända upp till 18 kt

TAF: ESCF 151205Z 1512/1515 20006KT CAVOK TEMPO 1512/1515 20015G18KT RMK MIL

Aktuella väderrapporter och prognoser från 4000 flygplatser (METAR- och TAF-rapporter).

De tillgängliga stationerna syns som gula och röda prickar på kartan.

För musen över prickarna för att se namnen på stationerna.

Klicka sedan för att få väderrapporter och prognoser.

För att ändra kartan: Klicka på de gröna knapparna med ett svart kors på för att zooma in; den gröna knappen med ett streck på för att zooma ut; eller på de gröna pilarna för angränsande kartor.


METAR-TAF: